createdAt,value
2019-02-24T00:00:42.416Z,100285.48
2019-02-24T00:03:10.933Z,100282.33
2019-02-24T00:05:39.456Z,100289.07
2019-02-24T00:08:08.007Z,100282.53
2019-02-24T00:10:36.521Z,100289.98
2019-02-24T00:13:05.042Z,100292.67
2019-02-24T00:15:33.597Z,100282.53
2019-02-24T00:18:02.122Z,100286.48
2019-02-24T00:20:30.633Z,100286.70
2019-02-24T00:22:59.157Z,100287.32
2019-02-24T00:25:27.677Z,100282.59
2019-02-24T00:27:56.242Z,100282.59
2019-02-24T00:30:24.766Z,100281.52
2019-02-24T00:32:53.282Z,100282.23
2019-02-24T00:35:21.802Z,100281.35
2019-02-24T00:37:50.325Z,100279.18
2019-02-24T00:40:18.893Z,100276.27
2019-02-24T00:42:47.414Z,100279.86
2019-02-24T00:45:15.931Z,100287.64
2019-02-24T00:47:44.461Z,100280.16
2019-02-24T00:50:12.965Z,100282.78
2019-02-24T00:52:41.545Z,100281.03
2019-02-24T00:55:10.058Z,100276.33
2019-02-24T00:57:38.579Z,100287.06
2019-02-24T01:00:10.104Z,100289.07
2019-02-24T01:02:38.624Z,100281.52
2019-02-24T01:05:08.580Z,100281.19
2019-02-24T01:07:37.095Z,100285.63
2019-02-24T01:10:08.315Z,100280.44
2019-02-24T01:12:36.848Z,100278.20
2019-02-24T01:15:08.271Z,100282.70
2019-02-24T01:17:36.841Z,100283.64
2019-02-24T01:20:07.764Z,100291.70
2019-02-24T01:22:36.290Z,100295.94
2019-02-24T01:25:04.835Z,100296.79
2019-02-24T01:27:33.362Z,100298.41
2019-02-24T01:30:02.025Z,100293.50
2019-02-24T01:32:30.542Z,100303.42
2019-02-24T01:34:59.058Z,100300.88
2019-02-24T01:37:27.588Z,100297.58
2019-02-24T01:39:56.100Z,100303.05
2019-02-24T01:42:24.672Z,100306.11
2019-02-24T01:44:53.223Z,100299.46
2019-02-24T01:47:21.734Z,100301.80
2019-02-24T01:49:50.258Z,100300.94
2019-02-24T01:52:18.771Z,100302.80
2019-02-24T01:54:47.335Z,100296.16
2019-02-24T01:57:15.856Z,100295.80
2019-02-24T01:59:44.374Z,100295.66
2019-02-24T02:02:12.900Z,100288.81
2019-02-24T02:04:41.414Z,100290.80
2019-02-24T02:07:09.982Z,100289.53
2019-02-24T02:09:38.499Z,100292.59
2019-02-24T02:12:07.020Z,100293.51
2019-02-24T02:14:35.541Z,100285.91
2019-02-24T02:17:04.057Z,100284.11
2019-02-24T02:19:32.659Z,100290.66
2019-02-24T02:22:01.121Z,100289.44
2019-02-24T02:24:29.636Z,100284.20
2019-02-24T02:26:58.165Z,100282.73
2019-02-24T02:29:26.692Z,100289.47
2019-02-24T02:31:55.250Z,100286.62
2019-02-24T02:34:23.761Z,100292.71
2019-02-24T02:36:52.275Z,100289.84
2019-02-24T02:39:20.792Z,100290.94
2019-02-24T02:41:49.306Z,100291.69
2019-02-24T02:44:17.877Z,100297.99
2019-02-24T02:46:46.399Z,100291.71
2019-02-24T02:49:14.915Z,100294.20
2019-02-24T02:51:43.428Z,100298.53
2019-02-24T02:54:11.944Z,100294.55
2019-02-24T02:56:40.510Z,100301.55
2019-02-24T02:59:09.020Z,100296.36
2019-02-24T03:01:37.529Z,100299.42
2019-02-24T03:04:06.058Z,100295.65
2019-02-24T03:06:45.203Z,100292.02
2019-02-24T03:09:13.715Z,100293.45
2019-02-24T03:11:42.228Z,100294.02
2019-02-24T03:14:10.790Z,100285.55
2019-02-24T03:16:39.303Z,100289.14
2019-02-24T03:19:07.822Z,100288.59
2019-02-24T03:21:36.341Z,100293.10
2019-02-24T03:24:04.861Z,100295.09
2019-02-24T03:26:33.435Z,100295.50
2019-02-24T03:29:04.392Z,100289.52
2019-02-24T03:31:32.185Z,100289.37
2019-02-24T03:34:00.717Z,100281.29
2019-02-24T03:36:29.227Z,100291.59
2019-02-24T03:38:57.791Z,100284.94
2019-02-24T03:41:26.304Z,100284.95
2019-02-24T03:43:54.821Z,100294.33
2019-02-24T03:46:23.338Z,100285.51
2019-02-24T03:48:51.845Z,100287.67
2019-02-24T03:51:20.433Z,100291.87
2019-02-24T03:53:48.942Z,100288.80
2019-02-24T03:56:17.446Z,100292.73
2019-02-24T03:58:45.968Z,100288.78
2019-02-24T04:01:14.484Z,100285.56
2019-02-24T04:03:43.032Z,100291.53
2019-02-24T04:06:11.547Z,100284.84
2019-02-24T04:08:40.056Z,100290.20
2019-02-24T04:11:08.600Z,100284.61
2019-02-24T04:13:37.104Z,100283.84
2019-02-24T04:16:05.661Z,100279.30
2019-02-24T04:18:34.179Z,100280.35
2019-02-24T04:21:02.701Z,100283.22
2019-02-24T04:23:31.230Z,100286.62
2019-02-24T04:25:59.757Z,100292.20
2019-02-24T04:28:28.289Z,100290.99
2019-02-24T04:30:56.799Z,100284.74
2019-02-24T04:33:25.324Z,100280.24
2019-02-24T04:35:53.847Z,100286.55
2019-02-24T04:38:22.364Z,100283.67
2019-02-24T04:40:50.943Z,100278.34
2019-02-24T04:43:19.467Z,100280.41
2019-02-24T04:45:48.004Z,100281.52
2019-02-24T04:48:16.527Z,100283.59
2019-02-24T04:50:45.049Z,100276.88
2019-02-24T04:53:13.609Z,100283.47
2019-02-24T04:55:42.139Z,100289.08
2019-02-24T04:58:10.649Z,100285.95
2019-02-24T05:00:39.189Z,100289.77
2019-02-24T05:03:07.702Z,100295.77
2019-02-24T05:05:36.259Z,100291.27
2019-02-24T05:08:04.782Z,100291.84
2019-02-24T05:10:33.299Z,100291.70
2019-02-24T05:13:01.833Z,100299.34
2019-02-24T05:15:30.352Z,100296.38
2019-02-24T05:17:58.935Z,100300.59
2019-02-24T05:20:27.451Z,100305.73
2019-02-24T05:22:55.973Z,100315.59
2019-02-24T05:25:24.500Z,100313.12
2019-02-24T05:27:53.025Z,100312.56
2019-02-24T05:30:21.548Z,100308.55
2019-02-24T05:32:50.114Z,100311.53
2019-02-24T05:35:18.596Z,100313.16
2019-02-24T05:37:47.114Z,100309.80
2019-02-24T05:40:15.674Z,100318.05
2019-02-24T05:42:44.190Z,100316.04
2019-02-24T05:45:12.710Z,100322.98
2019-02-24T05:47:41.288Z,100320.27
2019-02-24T05:50:09.802Z,100326.44
2019-02-24T05:52:38.333Z,100318.72
2019-02-24T05:55:07.472Z,100321.50
2019-02-24T05:57:35.997Z,100315.42
2019-02-24T06:00:05.078Z,100324.81
2019-02-24T06:02:33.593Z,100317.81
2019-02-24T06:05:02.108Z,100316.81
2019-02-24T06:07:30.671Z,100315.00
2019-02-24T06:09:59.186Z,100326.19
2019-02-24T06:12:27.696Z,100322.23
2019-02-24T06:14:56.224Z,100319.21
2019-02-24T06:17:24.728Z,100320.92
2019-02-24T06:19:53.286Z,100325.25
2019-02-24T06:22:21.792Z,100322.33
2019-02-24T06:24:50.305Z,100326.45
2019-02-24T06:27:18.821Z,100327.03
2019-02-24T06:29:47.338Z,100327.36
2019-02-24T06:32:15.896Z,100335.28
2019-02-24T06:34:44.412Z,100340.84
2019-02-24T06:37:12.926Z,100341.45
2019-02-24T06:39:41.445Z,100337.30
2019-02-24T06:42:09.958Z,100346.49
2019-02-24T06:44:38.515Z,100342.59
2019-02-24T06:47:07.022Z,100343.15
2019-02-24T06:49:35.535Z,100349.28
2019-02-24T06:52:04.049Z,100350.30
2019-02-24T06:54:32.560Z,100354.16
2019-02-24T06:57:01.130Z,100357.08
2019-02-24T06:59:29.635Z,100355.24
2019-02-24T07:01:58.145Z,100360.13
2019-02-24T07:04:26.668Z,100363.08
2019-02-24T07:06:55.174Z,100370.02
2019-02-24T07:09:23.737Z,100363.13
2019-02-24T07:11:52.249Z,100370.58
2019-02-24T07:14:20.759Z,100370.05
2019-02-24T07:16:49.274Z,100379.21
2019-02-24T07:19:17.785Z,100373.27
2019-02-24T07:21:46.333Z,100373.59
2019-02-24T07:24:14.867Z,100371.18
2019-02-24T07:26:43.367Z,100373.86
2019-02-24T07:29:12.276Z,100375.02
2019-02-24T07:31:40.799Z,100374.04
2019-02-24T07:34:11.649Z,100374.59
2019-02-24T07:36:40.162Z,100374.71
2019-02-24T07:39:08.678Z,100379.81
2019-02-24T07:41:37.206Z,100370.08
2019-02-24T07:44:05.724Z,100362.38
2019-02-24T07:46:34.298Z,100362.38
2019-02-24T07:49:02.821Z,100356.70
2019-02-24T07:51:31.332Z,100362.03
2019-02-24T07:53:59.839Z,100362.03
2019-02-24T07:56:28.376Z,100355.53
2019-02-24T07:58:56.922Z,100360.34
2019-02-24T08:01:25.425Z,100365.11
2019-02-24T08:03:54.176Z,100373.90
2019-02-24T08:06:22.693Z,100373.90
2019-02-24T08:08:51.200Z,100364.83
2019-02-24T08:11:19.752Z,100359.94
2019-02-24T08:13:48.254Z,100362.59
2019-02-24T08:16:16.767Z,100362.59
2019-02-24T08:18:49.485Z,100366.16
2019-02-24T08:21:15.533Z,100336.11
2019-02-24T08:23:44.086Z,100363.30
2019-02-24T08:26:12.598Z,100361.63
2019-02-24T08:28:41.117Z,100361.63
2019-02-24T08:31:09.674Z,100367.45
2019-02-24T08:33:38.640Z,100367.45
2019-02-24T08:36:07.212Z,100349.16
2019-02-24T08:38:37.297Z,100361.77
2019-02-24T08:41:06.176Z,100361.77
2019-02-24T08:43:34.776Z,100351.03
2019-02-24T08:46:03.288Z,100351.03
2019-02-24T08:48:31.853Z,100358.58
2019-02-24T08:51:00.359Z,100351.47
2019-02-24T08:53:28.864Z,100350.39
2019-02-24T08:55:57.382Z,100354.20
2019-02-24T08:58:25.889Z,100355.21
2019-02-24T09:00:54.447Z,100356.59
2019-02-24T09:03:22.955Z,100356.59
2019-02-24T09:05:51.470Z,100361.39
2019-02-24T09:08:19.992Z,100367.94
2019-02-24T09:10:48.505Z,100358.77
2019-02-24T09:13:17.062Z,100371.84
2019-02-24T09:15:45.572Z,100366.03
2019-02-24T09:18:14.085Z,100363.94
2019-02-24T09:20:42.620Z,100357.62
2019-02-24T09:23:11.135Z,100363.50
2019-02-24T09:25:39.686Z,100365.28
2019-02-24T09:28:08.203Z,100366.41
2019-02-24T09:30:36.736Z,100363.87
2019-02-24T09:33:05.329Z,100365.49
2019-02-24T09:35:33.855Z,100359.98
2019-02-24T09:38:02.412Z,100365.73
2019-02-24T09:40:30.926Z,100365.20
2019-02-24T09:42:59.431Z,100349.95
2019-02-24T09:45:27.952Z,100351.69
2019-02-24T09:47:56.489Z,100349.30
2019-02-24T09:50:25.031Z,100344.14
2019-02-24T09:52:53.546Z,100339.56
2019-02-24T09:55:22.063Z,100345.41
2019-02-24T09:57:50.599Z,100333.20
2019-02-24T10:00:19.107Z,100332.36
2019-02-24T10:02:47.678Z,100328.15
2019-02-24T10:05:16.182Z,100331.84
2019-02-24T10:07:44.690Z,100331.84
2019-02-24T10:10:13.503Z,100324.30
2019-02-24T10:12:42.012Z,100322.59
2019-02-24T10:15:13.090Z,100314.89
2019-02-24T10:17:41.582Z,100314.89
2019-02-24T10:20:11.195Z,100307.41
2019-02-24T10:22:39.715Z,100294.52
2019-02-24T10:25:09.167Z,100296.11
2019-02-24T10:27:37.721Z,100295.94
2019-02-24T10:30:11.535Z,100289.28
2019-02-24T10:32:40.059Z,100292.55
2019-02-24T10:35:08.564Z,100290.21
2019-02-24T10:37:37.077Z,100281.89
2019-02-24T10:40:08.881Z,100281.89
2019-02-24T10:42:37.466Z,100271.71
2019-02-24T10:45:09.066Z,100277.66
2019-02-24T10:47:37.622Z,100277.22
2019-02-24T10:50:09.495Z,100279.27
2019-02-24T10:52:38.090Z,100270.54
2019-02-24T10:55:06.699Z,100276.91
2019-02-24T10:57:35.204Z,100270.61
2019-02-24T11:00:05.917Z,100258.95
2019-02-24T11:02:34.422Z,100258.72
2019-02-24T11:05:02.970Z,100257.43
2019-02-24T11:07:31.478Z,100254.98
2019-02-24T11:09:59.985Z,100239.55
2019-02-24T11:12:28.505Z,100240.45
2019-02-24T11:14:57.008Z,100231.98
2019-02-24T11:17:25.611Z,100232.59
2019-02-24T11:19:54.091Z,100220.03
2019-02-24T11:22:22.592Z,100222.75
2019-02-24T11:24:51.145Z,100216.79
2019-02-24T11:27:19.655Z,100210.06
2019-02-24T11:29:48.156Z,100210.80
2019-02-24T11:32:16.676Z,100206.94
2019-02-24T11:34:45.191Z,100199.16
2019-02-24T11:37:13.740Z,100197.11
2019-02-24T11:39:42.248Z,100198.39
2019-02-24T11:42:10.751Z,100190.13
2019-02-24T11:44:39.268Z,100178.58
2019-02-24T11:47:07.771Z,100177.52
2019-02-24T11:49:36.336Z,100169.69
2019-02-24T11:52:04.853Z,100169.69
2019-02-24T11:54:33.361Z,100166.17
2019-02-24T11:57:01.892Z,100166.17
2019-02-24T11:59:30.400Z,100152.80
2019-02-24T12:01:58.906Z,100162.94
2019-02-24T12:04:27.466Z,100164.59
2019-02-24T12:06:55.958Z,100146.42
2019-02-24T12:09:24.458Z,100153.42
2019-02-24T12:11:53.009Z,100151.92
2019-02-24T12:14:21.592Z,100151.92
2019-02-24T12:16:50.102Z,100141.90
2019-02-24T12:19:18.620Z,100145.73
2019-02-24T12:21:47.131Z,100140.41
2019-02-24T12:24:15.685Z,100146.99
2019-02-24T12:26:44.194Z,100132.41
2019-02-24T12:29:12.699Z,100137.98
2019-02-24T12:31:41.219Z,100139.78
2019-02-24T12:34:09.725Z,100139.59
2019-02-24T12:36:38.282Z,100139.59
2019-02-24T12:39:06.782Z,100134.16
2019-02-24T12:41:35.302Z,100128.56
2019-02-24T12:44:03.811Z,100122.61
2019-02-24T12:46:32.312Z,100136.94
2019-02-24T12:49:00.882Z,100136.94
2019-02-24T12:51:29.363Z,100128.77
2019-02-24T12:53:57.875Z,100120.49
2019-02-24T12:56:26.396Z,100120.49
2019-02-24T12:58:54.928Z,100113.78
2019-02-24T13:01:23.484Z,100112.31
2019-02-24T13:03:51.994Z,100102.66
2019-02-24T13:06:20.492Z,100107.09
2019-02-24T13:08:49.011Z,100107.09
2019-02-24T13:11:17.519Z,100106.95
2019-02-24T13:13:46.072Z,100102.80
2019-02-24T13:16:14.589Z,100102.80
2019-02-24T13:18:43.094Z,100099.08
2019-02-24T13:21:11.615Z,100098.20
2019-02-24T13:23:40.124Z,100098.33
2019-02-24T13:26:08.687Z,100092.64
2019-02-24T13:28:37.191Z,100090.30
2019-02-24T13:31:05.702Z,100092.17
2019-02-24T13:33:34.226Z,100096.14
2019-02-24T13:36:02.750Z,100088.84
2019-02-24T13:38:31.317Z,100076.81
2019-02-24T13:41:01.415Z,100081.48
2019-02-24T13:43:29.926Z,100082.67
2019-02-24T13:45:58.449Z,100082.22
2019-02-24T13:48:26.967Z,100079.66
2019-02-24T13:50:55.523Z,100078.95
2019-02-24T13:53:24.039Z,100076.91
2019-02-24T13:55:52.547Z,100084.80
2019-02-24T13:58:21.086Z,100074.95
2019-02-24T14:00:49.587Z,100077.21
2019-02-24T14:03:18.137Z,100073.34
2019-02-24T14:05:46.654Z,100077.16
2019-02-24T14:08:15.162Z,100070.69
2019-02-24T14:10:43.692Z,100071.03
2019-02-24T14:13:12.192Z,100064.73
2019-02-24T14:15:40.753Z,100064.73
2019-02-24T14:18:09.254Z,100067.48
2019-02-24T14:20:37.775Z,100068.36
2019-02-24T14:23:06.300Z,100066.14
2019-02-24T14:25:34.814Z,100065.44
2019-02-24T14:28:03.381Z,100060.45
2019-02-24T14:30:31.884Z,100060.45
2019-02-24T14:33:00.391Z,100064.41
2019-02-24T14:35:28.952Z,100067.25
2019-02-24T14:37:57.461Z,100062.09
2019-02-24T14:40:26.044Z,100064.77
2019-02-24T14:42:54.582Z,100070.33
2019-02-24T14:45:24.760Z,100068.48
2019-02-24T14:47:53.345Z,100063.69
2019-02-24T14:50:22.426Z,100068.28
2019-02-24T14:52:50.983Z,100065.81
2019-02-24T14:55:19.520Z,100066.11
2019-02-24T14:57:48.040Z,100065.90
2019-02-24T15:00:18.821Z,100065.13
2019-02-24T15:02:47.351Z,100065.27
2019-02-24T15:05:16.810Z,100049.11
2019-02-24T15:07:45.607Z,100049.11
2019-02-24T15:10:19.916Z,100053.32
2019-02-24T15:12:48.432Z,100053.32
2019-02-24T15:15:22.351Z,100052.84
2019-02-24T15:17:50.863Z,100054.52
2019-02-24T15:20:20.470Z,100054.52
2019-02-24T15:22:49.001Z,100057.53
2019-02-24T15:25:19.076Z,100055.43
2019-02-24T15:27:47.651Z,100057.00
2019-02-24T15:30:28.024Z,100056.30
2019-02-24T15:32:56.614Z,100055.19
2019-02-24T15:35:25.222Z,100054.48
2019-02-24T15:37:53.720Z,100056.70
2019-02-24T15:40:22.233Z,100051.44
2019-02-24T15:42:50.751Z,100051.48
2019-02-24T15:45:19.312Z,100055.80
2019-02-24T15:47:47.837Z,100048.50
2019-02-24T15:50:16.361Z,100051.04
2019-02-24T15:52:44.896Z,100053.05
2019-02-24T15:55:15.566Z,100051.23
2019-02-24T15:57:44.082Z,100053.78
2019-02-24T16:00:19.773Z,100062.23
2019-02-24T16:02:48.291Z,100060.78
2019-02-24T16:05:16.859Z,100063.76
2019-02-24T16:07:45.369Z,100063.25
2019-02-24T16:10:16.553Z,100058.09
2019-02-24T16:12:45.110Z,100066.27
2019-02-24T16:15:15.523Z,100064.09
2019-02-24T16:17:44.040Z,100061.00
2019-02-24T16:20:17.775Z,100063.09
2019-02-24T16:22:46.288Z,100070.42
2019-02-24T16:25:14.874Z,100062.01
2019-02-24T16:27:43.397Z,100073.45
2019-02-24T16:30:16.270Z,100069.28
2019-02-24T16:32:44.834Z,100075.45
2019-02-24T16:35:15.063Z,100080.77
2019-02-24T16:37:43.577Z,100077.95
2019-02-24T16:40:23.490Z,100082.77
2019-02-24T16:42:53.558Z,100081.73
2019-02-24T16:45:22.135Z,100089.22
2019-02-24T16:47:50.655Z,100089.53
2019-02-24T16:50:21.236Z,100094.30
2019-02-24T16:52:49.770Z,100092.84
2019-02-24T16:55:18.599Z,100091.07
2019-02-24T16:57:48.102Z,100097.08
2019-02-24T17:00:23.263Z,100088.75
2019-02-24T17:02:51.780Z,100094.39
2019-02-24T17:05:20.336Z,100087.17
2019-02-24T17:07:49.377Z,100095.34
2019-02-24T17:10:23.907Z,100100.14
2019-02-24T17:12:52.434Z,100096.24
2019-02-24T17:15:20.942Z,100094.20
2019-02-24T17:17:49.498Z,100093.52
2019-02-24T17:20:22.623Z,100093.89
2019-02-24T17:22:51.130Z,100096.75
2019-02-24T17:25:19.696Z,100095.84
2019-02-24T17:27:48.200Z,100090.20
2019-02-24T17:30:16.806Z,100093.07
2019-02-24T17:32:45.332Z,100093.84
2019-02-24T17:35:13.840Z,100092.06
2019-02-24T17:37:42.410Z,100092.20
2019-02-24T17:40:16.044Z,100087.69
2019-02-24T17:42:44.560Z,100086.56
2019-02-24T17:45:14.005Z,100084.13
2019-02-24T17:47:42.526Z,100084.02
2019-02-24T17:50:12.630Z,100086.14
2019-02-24T17:52:41.273Z,100079.95
2019-02-24T17:55:14.484Z,100077.95
2019-02-24T17:57:43.023Z,100085.21
2019-02-24T18:00:14.427Z,100075.80
2019-02-24T18:02:42.939Z,100078.55
2019-02-24T18:05:12.958Z,100075.84
2019-02-24T18:07:41.471Z,100081.39
2019-02-24T18:10:10.017Z,100079.98
2019-02-24T18:12:38.536Z,100080.98
2019-02-24T18:15:10.048Z,100082.38
2019-02-24T18:17:38.576Z,100082.52
2019-02-24T18:20:09.776Z,100085.22
2019-02-24T18:22:38.405Z,100092.92
2019-02-24T18:25:10.711Z,100089.84
2019-02-24T18:27:39.235Z,100092.49
2019-02-24T18:30:10.882Z,100096.31
2019-02-24T18:32:39.407Z,100099.59
2019-02-24T18:35:07.955Z,100100.71
2019-02-24T18:37:36.476Z,100103.54
2019-02-24T18:40:07.679Z,100104.88
2019-02-24T18:42:36.221Z,100101.22
2019-02-24T18:45:05.643Z,100102.06
2019-02-24T18:47:34.232Z,100106.01
2019-02-24T18:50:03.142Z,100105.36
2019-02-24T18:52:31.668Z,100108.04
2019-02-24T18:55:00.294Z,100107.35
2019-02-24T18:57:28.804Z,100110.21
2019-02-24T18:59:58.887Z,100107.06
2019-02-24T19:02:27.415Z,100108.19
2019-02-24T19:04:55.932Z,100106.41
2019-02-24T19:07:24.457Z,100106.91
2019-02-24T19:09:52.980Z,100112.57
2019-02-24T19:12:21.564Z,100117.57
2019-02-24T19:14:50.102Z,100114.15
2019-02-24T19:17:18.602Z,100113.24
2019-02-24T19:19:47.173Z,100117.73
2019-02-24T19:22:15.700Z,100121.44
2019-02-24T19:24:44.210Z,100120.51
2019-02-24T19:27:12.780Z,100114.96
2019-02-24T19:29:41.298Z,100121.30
2019-02-24T19:32:09.817Z,100122.20
2019-02-24T19:34:38.778Z,100126.17
2019-02-24T19:37:07.299Z,100133.13
2019-02-24T19:39:35.886Z,100129.83
2019-02-24T19:42:04.406Z,100129.77
2019-02-24T19:44:32.926Z,100130.73
2019-02-24T19:47:01.522Z,100121.45
2019-02-24T19:49:30.072Z,100132.08
2019-02-24T19:51:58.652Z,100135.20
2019-02-24T19:54:27.172Z,100131.10
2019-02-24T19:56:55.681Z,100130.19
2019-02-24T19:59:24.218Z,100126.53
2019-02-24T20:01:52.738Z,100132.37
2019-02-24T20:04:21.312Z,100128.42
2019-02-24T20:06:49.836Z,100129.61
2019-02-24T20:09:18.373Z,100127.22
2019-02-24T20:11:46.910Z,100123.78
2019-02-24T20:14:15.421Z,100119.68
2019-02-24T20:16:44.029Z,100121.45
2019-02-24T20:19:12.542Z,100120.58
2019-02-24T20:21:41.099Z,100122.07
2019-02-24T20:24:09.725Z,100123.69
2019-02-24T20:26:38.248Z,100123.41
2019-02-24T20:29:06.817Z,100126.70
2019-02-24T20:31:35.332Z,100124.45
2019-02-24T20:34:03.847Z,100126.70
2019-02-24T20:36:32.365Z,100121.22
2019-02-24T20:39:00.876Z,100127.20
2019-02-24T20:41:29.467Z,100126.02
2019-02-24T20:43:57.989Z,100123.47
2019-02-24T20:46:26.512Z,100122.20
2019-02-24T20:48:55.087Z,100118.26
2019-02-24T20:51:23.604Z,100120.80
2019-02-24T20:53:52.138Z,100115.11
2019-02-24T20:56:21.087Z,100120.44
2019-02-24T20:58:49.613Z,100119.61
2019-02-24T21:01:18.185Z,100117.36
2019-02-24T21:03:46.698Z,100118.98
2019-02-24T21:06:15.218Z,100120.95
2019-02-24T21:08:43.794Z,100119.23
2019-02-24T21:11:12.312Z,100116.16
2019-02-24T21:13:40.822Z,100117.06
2019-02-24T21:16:09.414Z,100120.44
2019-02-24T21:18:37.940Z,100115.11
2019-02-24T21:21:06.458Z,100120.50
2019-02-24T21:23:35.019Z,100117.78
2019-02-24T21:26:03.528Z,100121.77
2019-02-24T21:28:32.038Z,100117.70
2019-02-24T21:31:00.613Z,100119.94
2019-02-24T21:33:29.127Z,100123.60
2019-02-24T21:35:57.638Z,100125.31
2019-02-24T21:38:26.168Z,100125.57
2019-02-24T21:40:54.670Z,100127.12
2019-02-24T21:43:23.242Z,100127.41
2019-02-24T21:45:51.756Z,100130.39
2019-02-24T21:48:20.266Z,100133.75
2019-02-24T21:50:48.779Z,100132.87
2019-02-24T21:53:17.301Z,100139.13
2019-02-24T21:55:45.866Z,100139.75
2019-02-24T21:58:14.378Z,100136.59
2019-02-24T22:00:42.889Z,100140.62
2019-02-24T22:03:11.406Z,100139.20
2019-02-24T22:05:39.925Z,100138.55
2019-02-24T22:08:08.490Z,100143.49
2019-02-24T22:10:37.003Z,100142.95
2019-02-24T22:13:05.520Z,100134.53
2019-02-24T22:15:34.037Z,100141.89
2019-02-24T22:18:02.553Z,100149.70
2019-02-24T22:20:31.113Z,100152.17
2019-02-24T22:22:59.628Z,100149.78
2019-02-24T22:25:28.137Z,100152.39
2019-02-24T22:27:56.657Z,100160.16
2019-02-24T22:30:25.169Z,100158.52
2019-02-24T22:32:53.724Z,100155.91
2019-02-24T22:35:22.235Z,100159.25
2019-02-24T22:37:50.750Z,100157.47
2019-02-24T22:40:19.268Z,100153.04
2019-02-24T22:42:47.784Z,100155.97
2019-02-24T22:45:20.073Z,100153.94
2019-02-24T22:47:48.585Z,100154.52
2019-02-24T22:50:17.099Z,100152.59
2019-02-24T22:52:46.186Z,100155.48
2019-02-24T22:55:18.887Z,100153.56
2019-02-24T22:57:47.395Z,100156.59
2019-02-24T23:00:53.664Z,100153.41
2019-02-24T23:03:24.323Z,100154.90
2019-02-24T23:05:52.838Z,100151.52
2019-02-24T23:08:21.344Z,100152.09
2019-02-24T23:10:49.867Z,100159.29
2019-02-24T23:13:18.423Z,100152.65
2019-02-24T23:15:47.017Z,100156.44
2019-02-24T23:18:15.536Z,100160.32
2019-02-24T23:20:44.048Z,100153.78
2019-02-24T23:23:12.563Z,100157.22
2019-02-24T23:25:41.070Z,100158.24
2019-02-24T23:28:09.640Z,100153.56
2019-02-24T23:30:38.144Z,100155.11
2019-02-24T23:33:06.656Z,100156.38
2019-02-24T23:35:35.176Z,100148.19
2019-02-24T23:38:03.684Z,100156.94
2019-02-24T23:40:32.235Z,100147.48
2019-02-24T23:43:00.748Z,100147.77
2019-02-24T23:45:29.257Z,100147.12
2019-02-24T23:47:57.779Z,100147.28
2019-02-24T23:50:26.290Z,100151.06
2019-02-24T23:52:54.841Z,100153.73
2019-02-24T23:55:23.347Z,100145.15
2019-02-24T23:57:51.861Z,100152.97
